WetterOnline ( https://www.wetteronline.de )

Wetter aktuell Bayerisch Eisenstein

Aktuelles Wetter: Großer Arber (1446m)

6-stündlich | Neueste Meldungen
Ortszeit Temperatur Wetter
Mi, 20.10. 2:00 8.1° C fast wolkenlos
Di, 19.10. 20:00 6.7° C bedeckt
Di, 19.10. 14:00 7.5° C bedeckt
Di, 19.10. 8:00 7.1° C bedeckt
Di, 19.10. 2:00 5.5° C bedeckt
Mo, 18.10. 20:00 3.4° C bedeckt
Mo, 18.10. 14:00 7.4° C leicht bewölkt
Mo, 18.10. 8:00 1.5° C wolkig
Ortszeit Temperatur Wetter
Mi, 20.10. 2:00 8.1° C fast wolkenlos
Mi, 20.10. 1:50 8.1° C fast wolkenlos
Mi, 20.10. 1:40 7.9° C wolkenlos
Mi, 20.10. 1:30 7.3° C fast wolkenlos
Mi, 20.10. 1:20 7.3° C fast wolkenlos
Mi, 20.10. 1:10 7.1° C leicht bewölkt
Mi, 20.10. 1:00 7.5° C wolkig
Mi, 20.10. 0:30 7.5° C bewölkt
Mi, 20.10. 0:00 6.9° C bedeckt
Di, 19.10. 23:30 6.3° C bedeckt
Di, 19.10. 23:00 6.2° C wolkig
Ortszeit Relative Feuchte Sichtweite
Mi, 20.10. 2:00 70% >70 km
Di, 19.10. 20:00 100% <100 m
Di, 19.10. 14:00 69% 55 km
Di, 19.10. 8:00 59% >70 km
Di, 19.10. 2:00 55% >70 km
Mo, 18.10. 20:00 91% 21 km
Mo, 18.10. 14:00 62% 65 km
Mo, 18.10. 8:00 83% 45 km
Ortszeit Relative Feuchte Sichtweite
Mi, 20.10. 2:00 70% >70 km
Mi, 20.10. 1:50 70% -
Mi, 20.10. 1:40 75% -
Mi, 20.10. 1:30 76% >70 km
Mi, 20.10. 1:20 76% -
Mi, 20.10. 1:10 77% -
Mi, 20.10. 1:00 74% >70 km
Mi, 20.10. 0:30 72% >70 km
Mi, 20.10. 0:00 78% >70 km
Di, 19.10. 23:30 86% >70 km
Di, 19.10. 23:00 96% 60 km
Ortszeit Niederschlagsmenge Niederschlagsart
Mi, 20.10. 2:00 0.3 l/m2 in 6 Std. Niederschlag
Di, 19.10. 20:00 0.3 l/m2 in 12 Std. Niederschlag
Di, 19.10. 14:00 0.0 l/m2 in 6 Std. -
Di, 19.10. 8:00 0.1 l/m2 in 12 Std. Niederschlag
Di, 19.10. 2:00 0.0 l/m2 in 6 Std. -
Mo, 18.10. 20:00 0.1 l/m2 in 12 Std. -
Mo, 18.10. 14:00 0.1 l/m2 in 6 Std. Schnee
Mo, 18.10. 8:00 0.1 l/m2 in 12 Std. Niederschlag
Ortszeit Niederschlagsmenge Niederschlagsart
Mi, 20.10. 2:00 0.0 l/m2 in 1 Std. Niederschlag
Mi, 20.10. 1:50 keine Meldung -
Mi, 20.10. 1:40 keine Meldung -
Mi, 20.10. 1:30 0.0 l/m2 in 1 Std. -
Mi, 20.10. 1:20 keine Meldung -
Mi, 20.10. 1:10 keine Meldung -
Mi, 20.10. 1:00 0.0 l/m2 in 1 Std. -
Mi, 20.10. 0:30 0.0 l/m2 in 1 Std. -
Mi, 20.10. 0:00 0.0 l/m2 in 1 Std. -
Di, 19.10. 23:30 0.0 l/m2 in 1 Std. -
Di, 19.10. 23:00 0.1 l/m2 in 1 Std. Niederschlag
Ortszeit Stärke Spitze Richtung
km/h Bft. km/h Grad Sektor
Mi, 20.10. 2:00 48 6 63 220° SW
Di, 19.10. 20:00 47 6 68 240° SW
Di, 19.10. 14:00 39 6 50 230° SW
Di, 19.10. 8:00 33 5 37 220° SW
Di, 19.10. 2:00 14 3 32 250° W
Mo, 18.10. 20:00 24 4 26 160° S
Mo, 18.10. 14:00 7 2 18 130° SO
Mo, 18.10. 8:00 11 2 22 340° N
Ortszeit Stärke Spitze Richtung
km/h Bft. km/h Grad Sektor
Mi, 20.10. 2:00 48 6 57 220° SW
Mi, 20.10. 1:50 48 6 - 220° SW
Mi, 20.10. 1:40 47 6 - 220° SW
Mi, 20.10. 1:30 44 6 56 220° SW
Mi, 20.10. 1:20 44 6 - 220° SW
Mi, 20.10. 1:10 44 6 - 220° SW
Mi, 20.10. 1:00 47 6 61 220° SW
Mi, 20.10. 0:30 47 6 58 230° SW
Mi, 20.10. 0:00 47 6 61 230° SW
Di, 19.10. 23:30 47 6 61 230° SW
Di, 19.10. 23:00 50 7 58 230° SW
Ortszeit Untergrenze Bedeckung Gattung
total tief tief mittel hoch
Mi, 20.10. 2:00 9000 m 2/8 0/8 - - -
Di, 19.10. 20:00 <30 m 8/8 0/8 - - -
Di, 19.10. 14:00 2100 m 8/8 8/8 - - -
Di, 19.10. 8:00 3600 m 8/8 8/8 - - -
Di, 19.10. 2:00 4500 m 8/8 8/8 - - -
Mo, 18.10. 20:00 5100 m 8/8 8/8 - - -
Mo, 18.10. 14:00 9000 m 3/8 0/8 - - -
Mo, 18.10. 8:00 690 m 6/8 6/8 - - -
Ortszeit Bedeckungsgrad in Achtel und Wolkenuntergrenze
Mi, 20.10. 2:00 2(9000m)
Mi, 20.10. 1:50 2(9000m)
Mi, 20.10. 1:40 keine Wolken
Mi, 20.10. 1:30 1(450m)
Mi, 20.10. 1:20 1(450m)
Mi, 20.10. 1:10 3(450m)
Mi, 20.10. 1:00 6(480m)
Mi, 20.10. 0:30 5(360m) 7(540m) 7(1800m)
Mi, 20.10. 0:00 1(330m) 7(630m) 8(2400m)
Di, 19.10. 23:30 6(630m) 7(1440m) 8(1800m)
Di, 19.10. 23:00 2(90m) 8(6300m) 8(7500m)
Ortszeit Stationsdruck (hPa) Tendenz (hPa in 3 Std.)
Mi, 20.10. 2:00 860 - 0,7
Di, 19.10. 20:00 861 - 0,2
Di, 19.10. 14:00 862 - 0,4
Di, 19.10. 8:00 862 - 0,3
Di, 19.10. 2:00 862 + 0,4
Mo, 18.10. 20:00 862 - 0,1
Mo, 18.10. 14:00 862 + 0,2
Mo, 18.10. 8:00 860 + 1,5
Ortszeit Stationsdruck (hPa) Tendenz (hPa in 3 Std.)
Mi, 20.10. 2:00 860 - 0,7
Mi, 20.10. 1:50 860 keine Meldung
Mi, 20.10. 1:40 860 keine Meldung
Mi, 20.10. 1:30 860 - 0,3
Mi, 20.10. 1:20 860 keine Meldung
Mi, 20.10. 1:10 860 keine Meldung
Mi, 20.10. 1:00 860 - 0,4
Mi, 20.10. 0:30 860 - 0,1
Mi, 20.10. 0:00 861 0,0
Di, 19.10. 23:30 860 - 0,5
Di, 19.10. 23:00 860 - 0,6
Ortszeit Schneehöhe (cm)
Mi, 20.10. 2:00 0
Di, 19.10. 20:00 0
Di, 19.10. 14:00 0
Di, 19.10. 8:00 0
Di, 19.10. 2:00 0
Mo, 18.10. 20:00 0
Mo, 18.10. 14:00 0
Mo, 18.10. 8:00 0
Ortszeit Schneehöhe (cm)
Mi, 20.10. 2:00 0
Mi, 20.10. 1:50 0
Mi, 20.10. 1:40 0
Mi, 20.10. 1:30 0
Mi, 20.10. 1:20 0
Mi, 20.10. 1:10 0
Mi, 20.10. 1:00 0
Mi, 20.10. 0:30 0
Mi, 20.10. 0:00 0
Di, 19.10. 23:30 0
Di, 19.10. 23:00 0
Link zu dieser Seite / Seite empfehlen

Das Wetter in ...